createdAt,value
2023-10-08T00:03:30.486Z,4.15
2023-10-08T00:08:32.166Z,6.10
2023-10-08T00:13:40.969Z,3.63
2023-10-08T00:18:49.839Z,4.90
2023-10-08T00:23:54.269Z,4.68
2023-10-08T00:29:17.003Z,4.13
2023-10-08T00:34:22.683Z,6.10
2023-10-08T00:39:24.421Z,5.03
2023-10-08T00:44:30.588Z,3.47
2023-10-08T00:49:41.793Z,3.35
2023-10-08T00:55:07.511Z,4.95
2023-10-08T01:00:18.498Z,4.70
2023-10-08T01:05:25.630Z,4.28
2023-10-08T01:10:27.142Z,4.72
2023-10-08T01:15:31.915Z,5.30
2023-10-08T01:20:44.825Z,3.72
2023-10-08T01:25:51.995Z,5.57
2023-10-08T01:30:58.685Z,5.35
2023-10-08T01:36:04.109Z,6.93
2023-10-08T01:41:19.367Z,5.55
2023-10-08T01:46:23.205Z,7.28
2023-10-08T01:51:37.712Z,3.35
2023-10-08T01:56:43.456Z,3.33
2023-10-08T02:01:49.058Z,4.47
2023-10-08T02:06:51.854Z,4.22
2023-10-08T02:11:57.811Z,5.75
2023-10-08T02:17:04.448Z,8.52
2023-10-08T02:22:10.886Z,5.88
2023-10-08T02:27:14.599Z,2.50
2023-10-08T02:32:16.090Z,5.35
2023-10-08T02:37:18.012Z,4.97
2023-10-08T02:42:19.804Z,7.50
2023-10-08T02:47:22.267Z,4.97
2023-10-08T02:52:23.902Z,3.35
2023-10-08T02:57:25.400Z,5.55
2023-10-08T03:02:27.339Z,5.22
2023-10-08T03:07:36.433Z,3.90
2023-10-08T03:12:37.948Z,8.40
2023-10-08T03:17:49.301Z,5.55
2023-10-08T03:22:50.942Z,4.32
2023-10-08T03:27:55.118Z,7.80
2023-10-08T03:32:56.854Z,7.38
2023-10-08T03:38:20.448Z,3.75
2023-10-08T03:43:24.685Z,4.43
2023-10-08T03:48:26.651Z,3.10
2023-10-08T03:53:31.629Z,3.30
2023-10-08T03:58:39.463Z,5.30
2023-10-08T04:04:06.807Z,3.97
2023-10-08T04:09:11.138Z,5.55
2023-10-08T04:14:12.808Z,6.05
2023-10-08T04:19:19.088Z,5.00
2023-10-08T04:24:37.826Z,3.33
2023-10-08T04:29:39.727Z,5.05
2023-10-08T04:34:46.716Z,6.25
2023-10-08T04:39:55.520Z,6.40
2023-10-08T04:44:59.714Z,3.65
2023-10-08T04:50:02.078Z,4.43
2023-10-08T04:55:17.384Z,4.43
2023-10-08T05:00:39.031Z,4.10
2023-10-08T05:06:01.868Z,3.42
2023-10-08T05:11:16.498Z,5.20
2023-10-08T05:16:36.979Z,3.03
2023-10-08T05:21:52.273Z,7.25
2023-10-08T05:27:10.131Z,4.85
2023-10-08T05:32:30.406Z,4.30
2023-10-08T05:37:42.060Z,5.07
2023-10-08T05:42:51.155Z,4.63
2023-10-08T05:48:09.079Z,7.05
2023-10-08T05:53:30.825Z,3.65
2023-10-08T05:58:46.827Z,4.80
2023-10-08T06:04:22.071Z,4.57
2023-10-08T06:09:24.093Z,6.15
2023-10-08T06:14:53.616Z,4.95
2023-10-08T06:19:55.291Z,3.17
2023-10-08T06:25:16.716Z,4.90
2023-10-08T06:30:18.420Z,6.22
2023-10-08T06:35:22.494Z,4.93
2023-10-08T06:40:39.523Z,6.63
2023-10-08T06:45:44.137Z,5.93
2023-10-08T06:50:46.704Z,7.43
2023-10-08T06:55:57.693Z,7.05
2023-10-08T07:00:59.957Z,8.73
2023-10-08T07:06:03.607Z,5.85
2023-10-08T07:11:12.523Z,5.68
2023-10-08T07:16:18.472Z,9.40
2023-10-08T07:21:25.180Z,3.70
2023-10-08T07:26:27.528Z,3.33
2023-10-08T07:31:29.990Z,7.65
2023-10-08T07:36:31.898Z,7.60
2023-10-08T07:41:34.929Z,6.45
2023-10-08T07:46:36.475Z,4.20
2023-10-08T07:51:38.539Z,5.85
2023-10-08T07:56:40.030Z,4.75
2023-10-08T08:01:43.249Z,5.53
2023-10-08T08:06:44.720Z,8.10
2023-10-08T08:11:49.227Z,4.45
2023-10-08T08:16:50.767Z,5.57
2023-10-08T08:21:53.604Z,3.55
2023-10-08T08:27:12.786Z,5.18
2023-10-08T08:32:22.441Z,5.20
2023-10-08T08:37:27.359Z,7.88
2023-10-08T08:42:30.991Z,9.00
2023-10-08T08:47:32.634Z,6.97
2023-10-08T08:52:34.316Z,5.55
2023-10-08T08:57:35.917Z,7.10
2023-10-08T09:02:38.887Z,6.95
2023-10-08T09:08:05.230Z,10.18
2023-10-08T09:13:10.156Z,8.73
2023-10-08T09:18:11.782Z,11.20
2023-10-08T09:23:13.728Z,13.05
2023-10-08T09:28:15.294Z,9.82
2023-10-08T09:33:18.750Z,13.15
2023-10-08T09:38:24.815Z,12.63
2023-10-08T09:43:26.918Z,12.38
2023-10-08T09:48:32.097Z,12.85
2023-10-08T09:53:45.732Z,18.92
2023-10-08T09:58:50.132Z,15.27
2023-10-08T10:03:51.946Z,8.43
2023-10-08T10:08:58.336Z,8.60
2023-10-08T10:14:01.622Z,13.02
2023-10-08T10:19:03.237Z,12.45
2023-10-08T10:24:07.036Z,12.50
2023-10-08T10:29:08.820Z,10.50
2023-10-08T10:34:10.469Z,11.80
2023-10-08T10:39:18.089Z,13.13
2023-10-08T10:44:20.618Z,15.73
2023-10-08T10:49:22.879Z,14.20
2023-10-08T10:54:25.579Z,12.23
2023-10-08T10:59:29.083Z,12.55
2023-10-08T11:04:30.917Z,12.40
2023-10-08T11:09:45.526Z,13.10
2023-10-08T11:14:48.224Z,15.57
2023-10-08T11:19:49.781Z,14.40
2023-10-08T11:24:55.229Z,12.75
2023-10-08T11:29:58.867Z,20.45
2023-10-08T11:35:01.475Z,12.55
2023-10-08T11:40:18.855Z,12.40
2023-10-08T11:45:25.183Z,12.32
2023-10-08T11:50:32.957Z,12.70
2023-10-08T11:55:37.799Z,23.02
2023-10-08T12:00:47.487Z,14.13
2023-10-08T12:05:51.074Z,14.07
2023-10-08T12:10:55.491Z,16.70
2023-10-08T12:16:07.272Z,12.82
2023-10-08T12:21:11.658Z,16.58
2023-10-08T12:26:17.067Z,15.32
2023-10-08T12:31:25.870Z,18.13
2023-10-08T12:36:33.749Z,10.73
2023-10-08T12:41:39.422Z,15.30
2023-10-08T12:46:44.944Z,15.70
2023-10-08T12:51:46.474Z,15.55
2023-10-08T12:56:49.969Z,13.50
2023-10-08T13:01:57.775Z,15.23
2023-10-08T13:07:02.865Z,13.32
2023-10-08T13:12:05.790Z,16.33
2023-10-08T13:17:11.826Z,13.70
2023-10-08T13:22:20.730Z,17.33
2023-10-08T13:27:24.561Z,11.55
2023-10-08T13:32:26.036Z,14.25
2023-10-08T13:37:27.531Z,18.50
2023-10-08T13:42:29.172Z,17.17
2023-10-08T13:47:34.741Z,16.15
2023-10-08T13:52:39.971Z,13.75
2023-10-08T13:57:45.584Z,15.85
2023-10-08T14:02:52.370Z,13.02
2023-10-08T14:07:54.231Z,11.63
2023-10-08T14:12:55.831Z,18.00
2023-10-08T14:17:59.585Z,13.63
2023-10-08T14:23:03.568Z,13.30
2023-10-08T14:28:09.474Z,13.68
2023-10-08T14:33:14.395Z,10.68
2023-10-08T14:38:34.911Z,10.95
2023-10-08T14:43:38.885Z,10.02
2023-10-08T14:48:41.855Z,13.25
2023-10-08T14:53:43.852Z,16.23
2023-10-08T14:58:45.853Z,21.52
2023-10-08T15:03:47.564Z,13.35
2023-10-08T15:08:50.980Z,13.35
2023-10-08T15:13:54.948Z,18.52
2023-10-08T15:18:57.790Z,21.48
2023-10-08T15:24:02.521Z,18.15
2023-10-08T15:29:04.192Z,17.73
2023-10-08T15:34:06.104Z,11.98
2023-10-08T15:39:10.967Z,14.73
2023-10-08T15:44:13.243Z,17.20
2023-10-08T15:49:15.017Z,15.00
2023-10-08T15:54:22.045Z,14.27
2023-10-08T15:59:23.750Z,16.08
2023-10-08T16:04:27.612Z,15.82
2023-10-08T16:09:29.248Z,16.17
2023-10-08T16:14:30.741Z,12.63
2023-10-08T16:19:33.416Z,15.90
2023-10-08T16:24:35.526Z,16.02
2023-10-08T16:29:37.435Z,14.20
2023-10-08T16:34:39.337Z,16.48
2023-10-08T16:39:40.786Z,14.65
2023-10-08T16:44:42.289Z,16.23
2023-10-08T16:49:43.844Z,13.55
2023-10-08T16:54:45.442Z,14.88
2023-10-08T16:59:47.133Z,12.27
2023-10-08T17:04:48.624Z,14.13
2023-10-08T17:09:52.667Z,10.40
2023-10-08T17:14:54.975Z,9.18
2023-10-08T17:19:56.538Z,12.32
2023-10-08T17:24:58.772Z,10.82
2023-10-08T17:30:00.380Z,11.45
2023-10-08T17:35:03.148Z,11.10
2023-10-08T17:40:08.654Z,12.48
2023-10-08T17:45:15.088Z,9.52
2023-10-08T17:50:17.081Z,12.75
2023-10-08T17:55:19.282Z,10.75
2023-10-08T18:00:22.579Z,14.48
2023-10-08T18:05:28.008Z,9.93
2023-10-08T18:10:31.833Z,9.85
2023-10-08T18:15:36.616Z,10.13
2023-10-08T18:20:44.701Z,8.80
2023-10-08T18:25:46.954Z,10.43
2023-10-08T18:30:50.967Z,10.73
2023-10-08T18:35:52.529Z,9.60
2023-10-08T18:40:54.053Z,12.93
2023-10-08T18:45:55.573Z,12.93
2023-10-08T18:51:12.024Z,11.57
2023-10-08T18:56:17.542Z,11.65
2023-10-08T19:01:20.518Z,9.38
2023-10-08T19:06:23.935Z,10.75
2023-10-08T19:11:27.442Z,10.95
2023-10-08T19:16:28.973Z,9.43
2023-10-08T19:21:31.045Z,8.25
2023-10-08T19:26:33.981Z,10.25
2023-10-08T19:31:35.507Z,12.70
2023-10-08T19:36:37.027Z,10.23
2023-10-08T19:41:38.487Z,6.97
2023-10-08T19:46:40.007Z,10.57
2023-10-08T19:51:41.579Z,11.40
2023-10-08T19:56:43.229Z,11.18
2023-10-08T20:01:44.793Z,12.05
2023-10-08T20:06:46.254Z,9.85
2023-10-08T20:11:47.803Z,9.32
2023-10-08T20:16:53.109Z,12.38
2023-10-08T20:21:54.575Z,9.30
2023-10-08T20:26:56.188Z,10.90
2023-10-08T20:32:01.026Z,8.02
2023-10-08T20:37:02.533Z,10.65
2023-10-08T20:42:05.905Z,12.30
2023-10-08T20:47:07.847Z,7.55
2023-10-08T20:52:09.555Z,13.88
2023-10-08T20:57:11.892Z,14.93
2023-10-08T21:02:14.159Z,11.40
2023-10-08T21:07:15.964Z,21.92
2023-10-08T21:12:18.083Z,17.13
2023-10-08T21:17:19.586Z,12.48
2023-10-08T21:22:23.084Z,16.52
2023-10-08T21:27:24.611Z,11.02
2023-10-08T21:32:26.129Z,15.40
2023-10-08T21:37:28.676Z,17.15
2023-10-08T21:42:30.201Z,18.25
2023-10-08T21:47:31.749Z,17.85
2023-10-08T21:52:33.449Z,15.43
2023-10-08T21:57:38.100Z,21.67
2023-10-08T22:02:47.014Z,16.95
2023-10-08T22:07:49.932Z,18.73
2023-10-08T22:12:54.715Z,15.48
2023-10-08T22:18:02.000Z,12.82
2023-10-08T22:23:06.290Z,16.48
2023-10-08T22:28:12.294Z,16.67
2023-10-08T22:33:15.060Z,13.82
2023-10-08T22:38:16.697Z,13.20
2023-10-08T22:43:20.693Z,17.20
2023-10-08T22:48:34.368Z,14.55
2023-10-08T22:53:37.050Z,13.70
2023-10-08T22:58:40.135Z,16.58
2023-10-08T23:03:47.513Z,13.15
2023-10-08T23:08:49.835Z,10.57
2023-10-08T23:13:52.118Z,9.52
2023-10-08T23:18:56.131Z,9.18
2023-10-08T23:23:58.107Z,10.02
2023-10-08T23:28:59.650Z,7.65
2023-10-08T23:34:02.040Z,10.30
2023-10-08T23:39:16.449Z,10.50
2023-10-08T23:44:26.163Z,9.85
2023-10-08T23:49:31.224Z,6.15
2023-10-08T23:54:35.749Z,9.45
2023-10-08T23:59:43.552Z,11.07
